Time;durP1;ratioP1;P1;durP2;ratioP2;P2;SDS_P1;SDS_P2;PMS_P1;PMS_P2;Temp;Humidity;BMP_temperature;BMP_pressure;BME280_temperature;BME280_humidity;BME280_pressure;Samples;Min_cycle;Max_cycle;Signal;HPM_P1;HPM_P2
2023/02/20 00:00:36;;;;;;;10.50;6.13;;;;;;;12.38;55.49;100684.25;5004135;28;20050;-77
2023/02/20 00:03:02;;;;;;;9.43;6.07;;;;;;;12.48;54.80;100689.44;5004673;28;20042;-77
2023/02/20 00:05:27;;;;;;;10.18;6.38;;;;;;;12.47;54.65;100685.91;4998636;28;20075;-76
2023/02/20 00:07:53;;;;;;;10.48;6.18;;;;;;;12.53;54.32;100682.53;4980355;28;20034;-76
2023/02/20 00:10:18;;;;;;;10.30;6.65;;;;;;;12.38;54.31;100662.66;5000347;28;20041;-78
2023/02/20 00:12:44;;;;;;;10.15;6.40;;;;;;;12.45;54.26;100685.22;5009875;28;20484;-76
2023/02/20 00:15:10;;;;;;;9.90;6.68;;;;;;;12.47;53.95;100677.81;4982831;28;20411;-77
2023/02/20 00:17:37;;;;;;;9.85;6.70;;;;;;;12.56;53.41;100676.78;5008871;28;20061;-75
2023/02/20 00:20:03;;;;;;;11.73;7.20;;;;;;;12.49;53.26;100669.56;5002744;28;20117;-77
2023/02/20 00:22:29;;;;;;;9.68;6.57;;;;;;;12.54;53.33;100686.06;5009336;28;20034;-76
2023/02/20 00:24:56;;;;;;;10.70;7.07;;;;;;;12.47;53.34;100677.81;4997648;28;20064;-76
2023/02/20 00:27:21;;;;;;;10.30;6.57;;;;;;;12.42;53.14;100669.41;5008892;28;20088;-77
2023/02/20 00:29:47;;;;;;;10.23;7.30;;;;;;;12.48;53.50;100678.66;4988197;28;20046;-76
2023/02/20 00:32:12;;;;;;;12.57;7.00;;;;;;;12.38;53.64;100658.13;5007519;28;20045;-77
2023/02/20 00:34:39;;;;;;;10.68;6.78;;;;;;;12.36;53.61;100681.75;5001396;28;20082;-77
2023/02/20 00:37:05;;;;;;;11.57;7.03;;;;;;;12.43;53.29;100665.69;5008527;28;20069;-76
2023/02/20 00:39:31;;;;;;;10.75;7.20;;;;;;;12.32;53.29;100668.78;5004315;28;20116;-78
2023/02/20 00:41:57;;;;;;;11.20;7.13;;;;;;;12.42;53.08;100670.25;5006554;28;20037;-77
2023/02/20 00:44:23;;;;;;;9.98;7.45;;;;;;;12.32;53.05;100666.91;5007846;28;20053;-76
2023/02/20 00:46:49;;;;;;;10.88;7.28;;;;;;;12.33;53.16;100670.44;5008619;28;20123;-77
2023/02/20 00:49:15;;;;;;;12.40;7.72;;;;;;;12.35;53.26;100663.88;5002077;28;20038;-77
2023/02/20 00:51:41;;;;;;;12.73;7.80;;;;;;;12.28;53.21;100684.44;5021102;28;20053;-77
2023/02/20 00:54:06;;;;;;;9.95;7.38;;;;;;;12.14;53.56;100677.03;5006330;28;20041;-76
2023/02/20 00:56:32;;;;;;;11.32;7.82;;;;;;;12.16;53.46;100673.16;5009014;28;20410;-77
2023/02/20 00:58:59;;;;;;;11.90;7.18;;;;;;;12.14;53.61;100690.53;5001067;28;20029;-78
2023/02/20 01:01:28;;;;;;;11.57;7.65;;;;;;;12.12;53.62;100689.84;5007492;28;20050;-77
2023/02/20 01:03:54;;;;;;;12.07;7.93;;;;;;;12.10;53.80;100703.47;4980350;28;20030;-76
2023/02/20 01:06:20;;;;;;;11.88;7.28;;;;;;;12.04;53.84;100705.00;5008724;28;20107;-77
2023/02/20 01:08:47;;;;;;;11.23;7.18;;;;;;;12.02;53.76;100712.41;5002268;28;20088;-76
2023/02/20 01:11:12;;;;;;;12.02;7.72;;;;;;;11.88;53.93;100706.88;5008482;28;20084;-77
2023/02/20 01:13:38;;;;;;;12.43;8.00;;;;;;;11.89;53.61;100685.13;4994814;28;20463;-77
2023/02/20 01:16:04;;;;;;;13.43;7.90;;;;;;;11.91;53.88;100715.44;5006715;28;20396;-78
2023/02/20 01:18:30;;;;;;;12.02;7.72;;;;;;;11.76;54.18;100701.78;5005334;28;20033;-77
2023/02/20 01:20:57;;;;;;;13.77;7.93;;;;;;;11.73;54.00;100688.66;5006295;28;20111;-77
2023/02/20 01:23:23;;;;;;;11.18;7.72;;;;;;;11.71;54.32;100716.78;5011114;28;20033;-77
2023/02/20 01:25:48;;;;;;;11.25;7.88;;;;;;;11.58;54.93;100714.56;5009079;28;20026;-76
2023/02/20 01:28:14;;;;;;;13.07;8.25;;;;;;;11.41;54.86;100700.22;5010713;28;20100;-75
2023/02/20 01:30:40;;;;;;;13.25;8.75;;;;;;;11.51;55.06;100722.44;4988915;28;20450;-76
2023/02/20 01:33:07;;;;;;;13.38;8.20;;;;;;;11.47;55.10;100726.50;5011096;28;20052;-78
2023/02/20 01:35:33;;;;;;;12.90;8.32;;;;;;;11.26;55.42;100708.13;5007425;28;20064;-76
2023/02/20 01:38:04;;;;;;;14.50;8.25;;;;;;;11.44;55.30;100721.44;5009977;28;20486;-77
2023/02/20 01:40:29;;;;;;;12.52;8.00;;;;;;;11.30;55.54;100722.06;5010263;28;20418;-77
2023/02/20 01:42:55;;;;;;;15.00;8.63;;;;;;;11.33;55.56;100722.59;5011561;28;20088;-77
2023/02/20 01:45:20;;;;;;;13.52;8.82;;;;;;;11.25;55.74;100729.81;5004063;28;20453;-77
2023/02/20 01:47:48;;;;;;;15.30;8.63;;;;;;;11.23;55.71;100712.97;5011530;28;20087;-77
2023/02/20 01:50:14;;;;;;;15.27;8.38;;;;;;;11.16;56.13;100727.06;5004485;28;20482;-77
2023/02/20 01:52:39;;;;;;;12.48;8.10;;;;;;;11.19;55.92;100736.66;4993666;28;20049;-76
2023/02/20 01:55:25;;;;;;;13.57;8.57;;;;;;;11.12;56.15;100733.81;4988699;28;20049;-77
2023/02/20 01:57:52;;;;;;;;;;;;;;;11.10;56.19;100730.44;4992237;28;20140;-76
2023/02/20 02:00:19;;;;;;;11.38;6.82;;;;;;;10.98;56.40;100699.47;5002412;28;19917;-76
2023/02/20 02:02:50;;;;;;;12.65;8.35;;;;;;;11.04;56.15;100744.53;5008271;28;20140;-77
2023/02/20 02:05:16;;;;;;;12.52;8.40;;;;;;;10.90;56.30;100720.94;4993867;28;20040;-76
2023/02/20 02:07:45;;;;;;;12.45;8.25;;;;;;;10.96;56.40;100726.50;4994630;28;20112;-76
2023/02/20 02:10:16;;;;;;;13.27;8.38;;;;;;;10.97;56.52;100740.78;5003432;28;20035;-76
2023/02/20 02:12:41;;;;;;;13.40;8.10;;;;;;;10.93;56.83;100732.22;4974637;28;20065;-78
2023/02/20 02:15:16;;;;;;;13.35;8.35;;;;;;;10.91;56.87;100733.34;5002561;28;20099;-77
2023/02/20 02:18:01;;;;;;;12.82;8.10;;;;;;;10.90;56.89;100742.44;4998306;28;20056;-76
2023/02/20 02:20:51;;;;;;;11.88;8.20;;;;;;;10.80;57.07;100733.66;5002216;28;20472;-78
2023/02/20 02:23:43;;;;;;;11.48;7.45;;;;;;;10.76;57.34;100735.81;5009648;28;20037;-77
2023/02/20 02:26:23;;;;;;;9.85;7.03;;;;;;;10.69;57.39;100726.72;5008321;28;20094;-78
2023/02/20 02:29:20;;;;;;;10.35;6.78;;;;;;;10.62;57.41;100721.13;5009711;28;20062;-76
2023/02/20 02:32:11;;;;;;;10.05;6.82;;;;;;;10.44;57.60;100693.47;4993099;28;20042;-77
2023/02/20 02:34:48;;;;;;;10.65;6.85;;;;;;;10.61;57.50;100724.00;5004883;28;20117;-77
2023/02/20 02:37:50;;;;;;;8.93;6.32;;;;;;;10.59;57.55;100716.06;5008093;28;20029;-77
2023/02/20 02:40:21;;;;;;;10.77;6.82;;;;;;;10.65;57.70;100714.56;5006144;28;20201;-77
2023/02/20 02:43:11;;;;;;;10.07;6.57;;;;;;;10.62;57.65;100721.13;5008470;28;20038;-77
2023/02/20 02:45:43;;;;;;;10.80;6.68;;;;;;;10.57;57.71;100707.31;4996624;28;20047;-77
2023/02/20 02:48:31;;;;;;;9.25;6.40;;;;;;;10.53;57.83;100727.44;5011143;28;20038;-77
2023/02/20 02:51:04;;;;;;;11.57;6.63;;;;;;;10.46;58.12;100747.91;5005294;28;20040;-77
2023/02/20 02:53:31;;;;;;;10.68;6.43;;;;;;;10.49;57.87;100737.69;4992860;28;20037;-76
2023/02/20 02:56:20;;;;;;;10.45;6.50;;;;;;;10.40;57.98;100741.34;4999467;28;20033;-78
2023/02/20 02:58:42;;;;;;;10.38;6.57;;;;;;;10.33;57.87;100724.16;4979401;28;20045;-77
2023/02/20 03:01:08;;;;;;;9.53;6.23;;;;;;;10.37;58.32;100754.22;5005014;28;20050;-77
2023/02/20 03:03:34;;;;;;;12.43;6.33;;;;;;;10.38;58.45;100753.25;4992019;28;20305;-76
2023/02/20 03:06:33;;;;;;;9.43;6.07;;;;;;;10.32;58.67;100760.94;5005260;28;20383;-79
2023/02/20 03:09:01;;;;;;;10.65;6.65;;;;;;;10.31;58.58;100775.34;4991323;28;20042;-77
2023/02/20 03:11:29;;;;;;;10.80;6.60;;;;;;;10.25;58.66;100767.03;5005010;28;20091;-77
2023/02/20 03:17:10;;;;;;;16.00;6.68;;;;;;;10.29;58.45;100780.03;5005059;28;20068;-78
2023/02/20 03:19:46;;;;;;;11.70;6.70;;;;;;;10.18;58.60;100777.56;4993531;28;20044;-77
2023/02/20 03:22:34;;;;;;;11.02;6.43;;;;;;;10.24;58.72;100795.75;4991624;28;20041;-77
2023/02/20 03:25:12;;;;;;;12.25;6.68;;;;;;;10.35;58.58;100835.03;4996147;28;20478;-77
2023/02/20 03:27:51;;;;;;;9.82;6.75;;;;;;;10.42;58.47;100843.28;4993090;28;20038;-77
2023/02/20 03:30:38;;;;;;;10.27;6.55;;;;;;;10.44;58.55;100852.03;4992593;28;20379;-77
2023/02/20 03:44:09;;;;;;;10.90;6.15;;;;;;;10.79;57.82;100886.09;5004051;28;20104;-77
2023/02/20 03:46:35;;;;;;;10.25;7.07;;;;;;;10.66;59.00;100908.03;5008150;28;20045;-77
2023/02/20 03:49:09;;;;;;;13.57;7.88;;;;;;;10.50;59.87;100929.38;4958712;28;20432;-75
2023/02/20 03:51:35;;;;;;;10.73;7.15;;;;;;;10.25;60.45;100931.78;4990719;28;20585;-77
2023/02/20 03:54:02;;;;;;;8.70;5.80;;;;;;;10.05;60.61;100943.69;4991702;28;20030;-77
2023/02/20 03:56:54;;;;;;;8.60;5.63;;;;;;;10.00;60.60;100971.00;5001301;28;20292;-77
2023/02/20 03:59:25;;;;;;;9.45;6.35;;;;;;;9.86;60.87;100969.66;5003018;28;20469;-78
2023/02/20 04:01:56;;;;;;;9.95;6.00;;;;;;;9.72;60.56;100986.25;4990544;28;20121;-77
2023/02/20 04:04:32;;;;;;;7.68;5.63;;;;;;;9.67;60.80;100991.22;4991435;28;20038;-77
2023/02/20 04:06:57;;;;;;;7.95;5.07;;;;;;;9.68;60.21;100995.59;4989603;28;20037;-76
2023/02/20 04:09:28;;;;;;;7.82;4.25;;;;;;;9.47;59.38;100987.75;5001357;28;20465;-77
2023/02/20 04:11:58;;;;;;;10.75;4.50;;;;;;;9.56;58.46;100983.34;4967483;28;20426;-78
2023/02/20 04:14:23;;;;;;;6.07;4.03;;;;;;;9.56;58.27;100984.19;5001055;28;20025;-77
2023/02/20 04:16:54;;;;;;;5.88;3.88;;;;;;;9.45;57.62;100971.78;5009198;28;20037;-77
2023/02/20 04:19:20;;;;;;;6.38;3.55;;;;;;;9.34;57.14;100969.28;4991678;28;20041;-76
2023/02/20 04:21:56;;;;;;;6.00;2.87;;;;;;;9.27;56.43;100960.97;5004863;28;20050;-77
2023/02/20 04:24:31;;;;;;;5.65;3.20;;;;;;;9.39;56.31;100982.25;4989287;28;20293;-77
2023/02/20 04:26:57;;;;;;;5.95;2.90;;;;;;;9.24;56.11;100982.69;5013090;28;20038;-78
2023/02/20 04:29:22;;;;;;;5.10;2.97;;;;;;;9.24;56.24;101011.38;5008157;28;20026;-77
2023/02/20 04:31:49;;;;;;;5.25;2.47;;;;;;;9.02;55.98;101013.38;5008830;28;20477;-77
2023/02/20 04:34:15;;;;;;;4.20;2.20;;;;;;;8.83;55.76;101030.31;5000378;28;20033;-77
2023/02/20 04:36:40;;;;;;;6.05;2.00;;;;;;;8.86;55.47;101034.56;5006659;28;20124;-78
2023/02/20 04:39:06;;;;;;;5.68;2.00;;;;;;;8.64;55.63;101015.06;5004023;28;20033;-77
2023/02/20 04:41:31;;;;;;;5.60;2.00;;;;;;;8.82;55.40;101041.19;5001828;28;20042;-77
2023/02/20 04:46:41;;;;;;;4.68;2.10;;;;;;;8.94;54.76;101042.72;4990760;28;20075;-77
2023/02/20 04:49:07;;;;;;;3.80;1.93;;;;;;;8.82;54.77;101022.41;5002635;28;20046;-78
2023/02/20 04:51:32;;;;;;;5.13;1.80;;;;;;;8.85;55.09;101048.97;5005292;28;20375;-76
2023/02/20 04:54:00;;;;;;;5.90;1.80;;;;;;;8.64;55.75;101047.25;5007411;28;20180;-77
2023/02/20 04:56:37;;;;;;;3.45;1.85;;;;;;;8.53;56.42;101049.19;4972758;28;20160;-77
2023/02/20 04:59:04;;;;;;;5.32;1.60;;;;;;;8.51;56.58;101049.31;5005130;28;20066;-77
2023/02/20 05:01:30;;;;;;;3.40;1.55;;;;;;;8.41;56.76;101043.09;4993066;28;20128;-77
2023/02/20 05:03:55;;;;;;;6.40;1.70;;;;;;;8.45;57.06;101041.81;5002666;28;20202;-78
2023/02/20 05:06:21;;;;;;;6.40;1.70;;;;;;;8.22;57.05;101034.00;5005950;28;20038;-78
2023/02/20 05:08:47;;;;;;;2.72;1.50;;;;;;;8.23;57.17;101062.47;5006303;28;20285;-77
2023/02/20 05:11:13;;;;;;;3.47;1.52;;;;;;;8.08;57.33;101047.75;5005865;28;20182;-78
2023/02/20 05:13:39;;;;;;;8.23;1.70;;;;;;;8.17;57.57;101063.03;5001866;28;20092;-78
2023/02/20 05:16:04;;;;;;;4.30;1.90;;;;;;;8.17;57.86;101070.19;5004248;28;20038;-76
2023/02/20 05:18:30;;;;;;;3.63;1.80;;;;;;;8.27;57.62;101083.66;4993076;28;20339;-78
2023/02/20 05:23:41;;;;;;;3.65;1.75;;;;;;;8.27;57.37;101089.00;4977605;28;20895;-76
2023/02/20 05:26:12;;;;;;;3.25;1.90;;;;;;;8.21;57.77;101099.25;4971520;28;20038;-77
2023/02/20 05:28:42;;;;;;;4.90;1.90;;;;;;;8.14;58.27;101114.16;4956939;28;20073;-78
2023/02/20 05:31:08;;;;;;;3.20;1.88;;;;;;;8.09;58.45;101121.75;4994688;28;20046;-79
2023/02/20 05:33:34;;;;;;;3.97;1.80;;;;;;;8.12;58.40;101121.47;5002813;28;20045;-77
2023/02/20 05:35:59;;;;;;;8.30;2.30;;;;;;;7.90;58.78;101106.44;5006687;28;20033;-78
2023/02/20 05:38:30;;;;;;;3.35;2.00;;;;;;;8.08;58.60;101130.78;5004954;28;20287;-78
2023/02/20 05:40:57;;;;;;;5.55;2.63;;;;;;;7.88;58.58;101112.91;4972163;28;20054;-79
2023/02/20 05:43:23;;;;;;;4.47;2.20;;;;;;;7.90;58.80;101127.03;5004741;28;20036;-77
2023/02/20 05:45:52;;;;;;;3.90;1.83;;;;;;;7.90;58.53;101121.66;4996343;28;20429;-78
2023/02/20 05:48:18;;;;;;;6.63;2.10;;;;;;;7.83;58.96;101148.09;5006860;28;20174;-78
2023/02/20 05:50:45;;;;;;;5.37;2.00;;;;;;;7.80;58.87;101151.06;4987486;28;20041;-82
2023/02/20 05:53:11;;;;;;;4.60;2.30;;;;;;;7.74;58.88;101140.88;4957940;28;20054;-79
2023/02/20 05:55:37;;;;;;;4.80;2.42;;;;;;;7.78;59.09;101156.53;4997014;28;20073;-82
2023/02/20 05:58:02;;;;;;;7.05;3.15;;;;;;;7.62;59.49;101161.47;5012777;28;20076;-79
2023/02/20 06:00:31;;;;;;;4.57;2.00;;;;;;;7.86;58.78;101188.00;5008556;28;20054;-84
2023/02/20 06:02:56;;;;;;;4.28;2.35;;;;;;;7.73;59.19;101200.75;5011452;28;20084;-84
2023/02/20 06:05:25;;;;;;;4.97;2.40;;;;;;;7.63;59.12;101214.00;4990061;28;20025;-82
2023/02/20 06:07:50;;;;;;;4.22;2.40;;;;;;;7.84;58.61;101238.13;5009916;28;20130;-83
2023/02/20 06:10:18;;;;;;;9.25;2.60;;;;;;;7.78;58.17;101220.78;4998555;28;20168;-85
2023/02/20 06:12:44;;;;;;;4.60;1.90;;;;;;;8.03;57.60;101250.84;4995008;28;20041;-84
2023/02/20 06:15:10;;;;;;;7.10;1.75;;;;;;;7.96;57.05;101229.09;5015457;28;20041;-84
2023/02/20 06:17:35;;;;;;;8.95;2.25;;;;;;;7.95;57.08;101243.44;5022135;28;20045;-82
2023/02/20 06:20:01;;;;;;;5.05;2.00;;;;;;;8.00;56.13;101229.66;4976490;28;20429;-84
2023/02/20 06:22:30;;;;;;;9.27;2.28;;;;;;;7.92;56.34;101232.16;5014248;28;20037;-83
2023/02/20 06:25:01;;;;;;;5.30;2.05;;;;;;;7.97;56.19;101256.72;4984758;28;20073;-84
2023/02/20 06:27:28;;;;;;;4.68;2.45;;;;;;;7.96;56.40;101271.94;5011141;28;20048;-83
2023/02/20 06:29:54;;;;;;;5.13;2.25;;;;;;;7.76;56.36;101259.34;5004630;28;20041;-83
2023/02/20 06:32:19;;;;;;;7.00;2.53;;;;;;;8.01;55.89;101274.22;4995416;28;20034;-82
2023/02/20 06:34:45;;;;;;;6.15;2.85;;;;;;;8.08;55.48;101269.16;4995847;28;20054;-82
2023/02/20 06:37:11;;;;;;;7.63;2.55;;;;;;;7.86;56.15;101259.44;5013351;28;20123;-79
2023/02/20 06:39:38;;;;;;;6.30;3.13;;;;;;;7.85;56.66;101280.00;4999636;28;20046;-80
2023/02/20 06:42:04;;;;;;;5.53;2.13;;;;;;;7.72;57.31;101284.66;5010632;28;20033;-84
2023/02/20 06:44:32;;;;;;;8.23;2.25;;;;;;;7.80;58.04;101299.13;5010920;28;20038;-84
2023/02/20 06:46:57;;;;;;;8.45;3.25;;;;;;;7.66;59.34;101302.09;5008301;28;20048;-82
2023/02/20 06:49:30;;;;;;;4.03;2.35;;;;;;;7.50;58.06;101280.25;5004024;28;20053;-87
2023/02/20 06:51:56;;;;;;;9.27;3.10;;;;;;;7.56;58.30;101301.13;5000646;28;20195;-82
2023/02/20 06:54:22;;;;;;;5.82;2.60;;;;;;;7.40;58.74;101302.41;5009925;28;20060;-80
2023/02/20 06:56:51;;;;;;;4.88;2.70;;;;;;;7.40;58.92;101296.22;4984412;28;20503;-81
2023/02/20 06:59:18;;;;;;;9.10;2.70;;;;;;;7.43;58.87;101312.00;5001836;28;20483;-83
2023/02/20 07:01:45;;;;;;;6.43;2.55;;;;;;;7.33;58.92;101295.84;4989352;28;20054;-81
2023/02/20 07:04:15;;;;;;;5.18;2.55;;;;;;;7.14;59.33;101300.97;5006638;28;20191;-85
2023/02/20 07:06:41;;;;;;;4.28;2.35;;;;;;;7.12;59.35;101303.78;4997202;28;20041;-82
2023/02/20 07:09:08;;;;;;;5.18;2.70;;;;;;;7.02;60.37;101326.84;5007851;28;20475;-82
2023/02/20 07:11:36;;;;;;;5.10;2.28;;;;;;;6.82;61.30;101324.94;5009137;28;20045;-79
2023/02/20 07:14:01;;;;;;;8.02;2.58;;;;;;;6.76;61.50;101331.59;5007085;28;20501;-86
2023/02/20 07:16:30;;;;;;;7.32;3.38;;;;;;;6.78;61.49;101324.31;5006474;28;20469;-84
2023/02/20 07:18:55;;;;;;;3.88;2.20;;;;;;;6.81;61.83;101349.94;5000959;28;20519;-83
2023/02/20 07:21:21;;;;;;;3.70;2.25;;;;;;;6.74;62.27;101358.47;4993739;28;20544;-83
2023/02/20 07:23:49;;;;;;;4.03;2.38;;;;;;;6.78;62.01;101337.66;4991742;28;20141;-88
2023/02/20 07:26:28;;;;;;;5.85;2.83;;;;;;;6.54;62.97;101329.75;4993265;28;20041;-89
2023/02/20 07:29:03;;;;;;;5.28;3.17;;;;;;;6.75;63.47;101356.63;4994612;28;20192;-83
2023/02/20 07:31:32;;;;;;;6.35;2.83;;;;;;;6.67;64.34;101359.91;5003485;28;20048;-85
2023/02/20 07:34:02;;;;;;;7.85;3.15;;;;;;;6.62;64.01;101363.88;5008716;28;20682;-89
2023/02/20 07:36:27;;;;;;;13.77;3.55;;;;;;;6.62;66.62;101374.56;4988782;28;20057;-83
2023/02/20 07:39:00;;;;;;;7.57;3.33;;;;;;;6.68;64.14;101379.44;4965461;28;20034;-92
2023/02/20 07:41:31;;;;;;;5.95;3.25;;;;;;;6.61;64.86;101375.56;5007135;28;20022;-85
2023/02/20 07:43:58;;;;;;;5.95;3.85;;;;;;;6.65;65.50;101374.31;5007878;28;20138;-83
2023/02/20 07:46:25;;;;;;;7.22;3.38;;;;;;;6.78;64.17;101377.75;5011332;28;20129;-83
2023/02/20 07:48:52;;;;;;;4.47;2.35;;;;;;;6.62;63.51;101380.75;5010010;28;20037;-80
2023/02/20 07:51:39;;;;;;;4.15;2.47;;;;;;;6.71;62.74;101395.25;5009662;28;20509;-86
2023/02/20 07:54:04;;;;;;;7.72;3.33;;;;;;;6.62;63.66;101398.63;5020573;28;20018;-84
2023/02/20 07:56:30;;;;;;;6.32;2.90;;;;;;;6.63;62.88;101403.84;4994768;28;20430;-82
2023/02/20 07:58:55;;;;;;;6.20;3.30;;;;;;;6.47;63.96;101398.81;5019305;28;20033;-81
2023/02/20 08:01:21;;;;;;;6.18;3.60;;;;;;;6.57;63.37;101409.66;5004881;28;20427;-86
2023/02/20 08:03:47;;;;;;;5.53;3.40;;;;;;;6.39;63.54;101398.56;5019318;28;20046;-83
2023/02/20 08:06:19;;;;;;;5.60;3.30;;;;;;;6.42;64.16;101427.69;5013077;28;20033;-83
2023/02/20 08:08:50;;;;;;;6.65;3.03;;;;;;;6.31;64.23;101411.63;4995298;28;20045;-86
2023/02/20 08:11:17;;;;;;;7.55;3.50;;;;;;;6.39;63.65;101422.59;5014097;28;20143;-84
2023/02/20 08:13:43;;;;;;;5.78;3.20;;;;;;;6.29;64.35;101421.56;5009047;28;20108;-83
2023/02/20 08:16:11;;;;;;;6.72;3.13;;;;;;;6.27;64.84;101435.03;5004765;28;20046;-82
2023/02/20 08:18:37;;;;;;;7.57;3.45;;;;;;;6.16;65.17;101421.63;5002197;28;20052;-86
2023/02/20 08:21:02;;;;;;;5.25;3.10;;;;;;;6.21;64.76;101438.16;5011069;28;20030;-85
2023/02/20 08:23:28;;;;;;;5.78;3.17;;;;;;;5.95;66.31;101432.09;5010545;28;20033;-85
2023/02/20 08:25:56;;;;;;;6.28;3.58;;;;;;;5.91;66.73;101447.41;5005798;28;20516;-86
2023/02/20 08:28:22;;;;;;;6.55;3.45;;;;;;;5.69;68.17;101450.78;4994010;28;20034;-83
2023/02/20 08:30:50;;;;;;;4.97;2.85;;;;;;;5.66;68.32;101453.66;5006552;28;20037;-82
2023/02/20 08:33:18;;;;;;;10.13;3.50;;;;;;;5.58;69.93;101458.72;4999815;28;20129;-84
2023/02/20 08:35:50;;;;;;;5.82;3.42;;;;;;;5.35;70.66;101456.81;5007258;28;20034;-84
2023/02/20 08:38:36;;;;;;;11.68;6.35;;;;;;;5.19;72.94;101457.88;4992088;28;20026;-84
2023/02/20 08:41:06;;;;;;;6.30;3.63;;;;;;;5.09;73.14;101467.47;5005917;28;20447;-83
2023/02/20 08:43:37;;;;;;;7.05;3.38;;;;;;;4.73;74.02;101452.19;5010569;28;20568;-85
2023/02/20 08:46:06;;;;;;;9.20;3.47;;;;;;;4.59;74.88;101461.13;5000618;28;20046;-88
2023/02/20 08:48:34;;;;;;;7.25;3.78;;;;;;;4.50;75.39;101475.91;4986500;28;20491;-88
2023/02/20 08:51:01;;;;;;;6.03;3.65;;;;;;;4.52;74.61;101483.75;4998335;28;20112;-88
2023/02/20 08:53:28;;;;;;;6.63;3.35;;;;;;;4.35;75.46;101468.91;5012658;28;20099;-88
2023/02/20 08:55:55;;;;;;;7.15;3.58;;;;;;;4.52;74.97;101494.41;4999752;28;20147;-86
2023/02/20 08:58:21;;;;;;;6.38;3.55;;;;;;;4.47;74.52;101483.22;5008533;28;20041;-85
2023/02/20 09:00:48;;;;;;;8.20;3.40;;;;;;;4.39;74.39;101495.22;4984896;28;20050;-85
2023/02/20 09:03:16;;;;;;;;;;;;;;;4.64;74.19;101498.94;5009886;28;20104;-83
2023/02/20 09:05:43;;;;;;;5.85;3.33;;;;;;;4.40;74.43;101499.63;5002960;28;19975;-83
2023/02/20 09:08:09;;;;;;;6.78;3.63;;;;;;;4.41;74.95;101497.81;4989067;28;20121;-84
2023/02/20 09:10:37;;;;;;;6.60;3.42;;;;;;;4.60;74.47;101508.09;4985961;28;20524;-83
2023/02/20 09:13:04;;;;;;;6.45;3.25;;;;;;;4.37;74.12;101469.66;5016239;28;20048;-83
2023/02/20 09:15:38;;;;;;;6.28;3.33;;;;;;;4.68;73.94;101500.44;5002518;28;20057;-84
2023/02/20 09:18:21;;;;;;;6.50;3.65;;;;;;;4.66;74.66;101513.03;5014439;28;20025;-93
2023/02/20 09:20:50;;;;;;;7.57;3.40;;;;;;;4.73;74.16;101524.09;4999718;28;20124;-91
2023/02/20 09:23:24;;;;;;;6.82;3.30;;;;;;;4.68;73.86;101489.78;4994877;28;20042;-88
2023/02/20 09:25:50;;;;;;;5.97;3.05;;;;;;;4.59;73.73;101503.75;5006139;28;20371;-87
2023/02/20 09:28:25;;;;;;;5.68;2.85;;;;;;;4.40;74.00;101502.28;5011754;28;20038;-93
2023/02/20 09:30:59;;;;;;;4.68;2.88;;;;;;;4.71;74.54;101544.69;4959588;28;20038;-90
2023/02/20 09:33:27;;;;;;;5.40;2.92;;;;;;;4.43;74.42;101507.41;5020324;28;20137;-87
2023/02/20 09:35:53;;;;;;;7.03;3.35;;;;;;;4.80;74.55;101552.94;4999103;28;20102;-82
2023/02/20 09:38:25;;;;;;;6.00;2.97;;;;;;;4.64;74.34;101523.78;5012760;28;20034;-84
2023/02/20 09:40:56;;;;;;;8.60;4.25;;;;;;;4.92;73.51;101548.59;5011740;28;20100;-86
2023/02/20 09:43:50;;;;;;;7.57;4.38;;;;;;;5.08;73.05;101561.75;5012625;28;20046;-88
2023/02/20 09:46:22;;;;;;;9.35;4.28;;;;;;;4.82;73.06;101527.03;5007171;28;20049;-87
2023/02/20 09:49:09;;;;;;;7.50;3.58;;;;;;;5.24;70.58;101545.53;4996684;28;20036;-87
2023/02/20 09:51:41;;;;;;;7.15;3.80;;;;;;;5.37;71.16;101545.56;5011855;28;20056;-88
2023/02/20 09:54:15;;;;;;;6.80;3.45;;;;;;;5.28;69.99;101526.56;5012987;28;20018;-86
2023/02/20 09:56:45;;;;;;;7.55;4.40;;;;;;;5.59;69.94;101555.59;4995432;28;20103;-86
2023/02/20 09:59:26;;;;;;;15.52;6.50;;;;;;;5.48;69.37;101549.19;5000238;28;20026;-89
2023/02/20 10:02:30;;;;;;;8.82;4.30;;;;;;;5.57;67.82;101557.50;4984743;28;20102;-87
2023/02/20 10:05:03;;;;;;;9.65;3.40;;;;;;;5.62;66.30;101531.34;4992694;28;20430;-86
2023/02/20 10:07:33;;;;;;;8.57;4.00;;;;;;;5.83;66.71;101558.34;4992293;28;20034;-86
2023/02/20 10:10:33;;;;;;;10.23;4.78;;;;;;;5.92;66.69;101558.56;4994479;28;20050;-88
2023/02/20 10:13:28;;;;;;;5.93;3.50;;;;;;;6.11;63.28;101565.28;5015067;28;20033;-87
2023/02/20 10:16:12;;;;;;;4.25;2.72;;;;;;;6.20;62.27;101564.63;5007628;28;20058;-87
2023/02/20 10:18:57;;;;;;;6.10;3.28;;;;;;;6.27;61.45;101543.66;5009291;28;20034;-88
2023/02/20 10:21:51;;;;;;;8.48;3.50;;;;;;;6.50;61.66;101563.38;4989797;28;20044;-86
2023/02/20 10:24:21;;;;;;;5.03;3.20;;;;;;;6.47;59.23;101543.06;5000425;28;20045;-89
2023/02/20 10:26:54;;;;;;;5.63;2.38;;;;;;;6.42;56.29;101549.72;4993681;28;20363;-88
2023/02/20 10:29:25;;;;;;;6.85;2.92;;;;;;;6.30;57.23;101527.44;4995855;28;20040;-87
2023/02/20 10:32:12;;;;;;;5.93;2.70;;;;;;;6.66;56.68;101563.09;4993680;28;20132;-88
2023/02/20 10:35:10;;;;;;;6.03;3.08;;;;;;;6.72;56.73;101554.63;4993397;28;20042;-89
2023/02/20 10:37:48;;;;;;;6.57;3.50;;;;;;;6.64;57.02;101522.28;4979813;28;20045;-85
2023/02/20 10:40:29;;;;;;;6.05;2.85;;;;;;;6.69;56.71;101520.09;5001505;28;20065;-86
2023/02/20 10:43:09;;;;;;;6.47;3.60;;;;;;;6.72;57.25;101533.25;4992352;28;20131;-87
2023/02/20 10:45:54;;;;;;;7.57;3.30;;;;;;;6.71;57.46;101529.72;4990187;28;20073;-88
2023/02/20 10:48:24;;;;;;;7.82;3.15;;;;;;;6.56;56.76;101501.47;5011734;28;20104;-87
2023/02/20 10:51:12;;;;;;;7.85;3.50;;;;;;;6.60;58.40;101536.81;4991749;28;20108;-87
2023/02/20 10:53:55;;;;;;;7.53;3.78;;;;;;;6.80;59.03;101538.88;5014547;28;20084;-88
2023/02/20 10:56:34;;;;;;;7.60;3.67;;;;;;;6.96;56.27;101547.44;5008248;28;20156;-88
2023/02/20 10:59:21;;;;;;;16.38;4.47;;;;;;;6.68;56.91;101539.78;5012735;28;20026;-88
2023/02/20 11:01:54;;;;;;;8.05;4.65;;;;;;;6.80;57.57;101540.69;5006702;28;20070;-87
2023/02/20 11:04:28;;;;;;;7.28;4.28;;;;;;;6.77;57.49;101549.78;5008760;28;20030;-88
2023/02/20 11:07:03;;;;;;;8.38;4.93;;;;;;;6.94;57.17;101552.03;4985942;28;20046;-87
2023/02/20 11:09:29;;;;;;;10.38;4.30;;;;;;;6.91;55.42;101556.78;5007704;28;20111;-89
2023/02/20 11:11:58;;;;;;;6.78;3.58;;;;;;;7.06;53.70;101549.41;5006802;28;20431;-87
2023/02/20 11:14:57;;;;;;;7.13;3.55;;;;;;;7.27;53.33;101565.66;5014776;28;20040;-88
2023/02/20 11:17:27;;;;;;;9.80;4.72;;;;;;;7.17;54.39;101518.22;4962866;28;20050;-87
2023/02/20 11:19:59;;;;;;;11.27;4.35;;;;;;;7.27;53.69;101534.41;4984397;28;20070;-88
2023/02/20 11:22:46;;;;;;;10.25;4.40;;;;;;;7.58;53.57;101538.19;5014368;28;20505;-88
2023/02/20 11:25:15;;;;;;;9.23;4.10;;;;;;;7.76;52.11;101537.75;4995440;28;20398;-88
2023/02/20 11:27:43;;;;;;;9.40;4.28;;;;;;;7.84;52.57;101524.59;5009952;28;20331;-87
2023/02/20 11:30:33;;;;;;;9.05;4.30;;;;;;;7.80;53.37;101529.34;4994705;28;20092;-87
2023/02/20 11:33:15;;;;;;;12.48;5.40;;;;;;;8.03;53.37;101534.72;5011812;28;20067;-87
2023/02/20 11:35:48;;;;;;;7.10;4.05;;;;;;;7.71;52.67;101540.78;4994953;28;20112;-88
2023/02/20 11:38:28;;;;;;;9.30;5.30;;;;;;;7.76;52.64;101543.94;5011141;28;20490;-85
2023/02/20 11:40:59;;;;;;;12.60;6.82;;;;;;;7.65;54.94;101546.59;5002126;28;20054;-87
2023/02/20 11:43:48;;;;;;;13.40;7.50;;;;;;;7.59;55.72;101541.75;5027407;28;20113;-86
2023/02/20 11:46:20;;;;;;;11.65;6.10;;;;;;;7.69;55.00;101553.44;5024388;28;20018;-85
2023/02/20 11:49:08;;;;;;;10.82;5.88;;;;;;;7.86;55.24;101548.56;5016717;28;20038;-88
2023/02/20 11:51:36;;;;;;;12.38;6.78;;;;;;;7.77;55.16;101540.31;5029364;28;20038;-88
2023/02/20 11:54:16;;;;;;;10.43;5.90;;;;;;;7.82;54.46;101546.16;5025684;28;20061;-88
2023/02/20 11:57:00;;;;;;;9.93;5.30;;;;;;;7.69;54.50;101542.72;5011410;28;20557;-86
2023/02/20 11:59:41;;;;;;;14.90;6.63;;;;;;;7.38;55.12;101544.28;5013648;28;20030;-87
2023/02/20 12:02:24;;;;;;;15.95;5.85;;;;;;;7.19;55.10;101540.34;5032543;28;20030;-86
2023/02/20 12:05:11;;;;;;;10.38;4.97;;;;;;;7.32;54.99;101556.28;5010539;28;20046;-86
2023/02/20 12:07:39;;;;;;;13.68;4.32;;;;;;;7.19;55.29;101552.88;5001212;28;20057;-85